Accueil
METAR-TAF:

METAR-TAF

Aéroports :

Koumac, Nouvelle-Calédonie

Aérodrome de Koumac

latitude: 20-34S, longitude: 164-17E, altitude: 23 m

METAR: absent

Heure: 21:26 (10:26 UTC)

Prévision

Le bulletin a été fait il y a 5 heures et 26 minutes, à 05:00 UTC
Prévision valable du 21 à 06 UTC au 22 à 06 UTC
Vent 10 kt de sud
Visibilité 10 km ou plus
Nuages épars à une hauteur de 6000 ft
Evoluant progressivement
du 21 à 06 UTC au 21 à 09 UTC
Vent 6 kt de nord-est
Temporairement
du 22 à 00 UTC au 22 à 06 UTC
Vent 12 kt de nord/nord-est avec des rafales jusqu'à 22 kt
Quelques nuages à une hauteur de 2000 ft, Cumulus congestus.
averses de pluie

TAF: NWWK 210500Z 2106/2206 18010KT 9999 SCT060 BECMG 2106/2109 05006KT TEMPO 2200/2206 03012G22KT SHRA FEW020TCU

Observations et prévisions météorologiques de plus de 4000 aéroports (messages METAR et TAF).

Les stations disponibles sont représentées par des disques jaunes et rouges sur la carte.

Passer la souris dessus pour voir le nom de la station.

Cliquer dessus pour voir les observations et prévisions météorologiques.

Pour changer de carte: cliquez sur les boutons verts avec une croix noire pour zoomer, sur le bouton vert avec un tiret pour effectuer un zoom arrière, ou sur les flèches vertes pour les cartes adjacentes.


METAR-TAF: